Marshallton, Delaware
Current Conditions -  °F | °C
As of 5:51 PM on Wednesday 22 Oct 2014 (Local Time) from KILG Reporting Station
Overcast Overcast  
Wind Chill: 55°   Ceiling: 3200
Heat Index: 55°   Visibility: 10mi
Dew Point: 51°   Wind: 17mph
Humidity: 86%   Direction: 340°NNW
Pressure: 29.86"   Gusts: NA
Location:  39.7388°N, 75.6642°W
Report Text: KILG 222151Z 34015KT 10SM OVC032 13/11 A2986 RMK AO2 RAE12 SLP111 P0001 T01280106
Loading
Personal Weather Stations






























Interactive Weather Map
Tropical Storm Tracking
New forecast layout! Learn more

10-Day Weather Forecast

Advertisements
Track Severe Weather on mobile